sensor_id;sensor_type;location;lat;lon;timestamp;pressure;altitude;pressure_sealevel;temperature;humidity
49949;BME280;35840;45.982;8.890;2022-09-06T00:01:29;98862.50;;;20.56;75.32
49949;BME280;35840;45.982;8.890;2022-09-06T00:03:56;98861.34;;;20.31;75.98
49949;BME280;35840;45.982;8.890;2022-09-06T00:06:23;98862.91;;;20.24;76.49
49949;BME280;35840;45.982;8.890;2022-09-06T00:08:49;98861.91;;;20.35;76.37
49949;BME280;35840;45.982;8.890;2022-09-06T00:11:17;98867.50;;;20.40;76.27
49949;BME280;35840;45.982;8.890;2022-09-06T00:13:46;98864.50;;;20.44;76.70
49949;BME280;35840;45.982;8.890;2022-09-06T00:16:17;98863.25;;;20.49;76.15
49949;BME280;35840;45.982;8.890;2022-09-06T00:18:44;98851.94;;;20.48;76.19
49949;BME280;35840;45.982;8.890;2022-09-06T00:21:26;98859.63;;;20.50;75.65
49949;BME280;35840;45.982;8.890;2022-09-06T00:23:54;98849.28;;;20.58;75.10
49949;BME280;35840;45.982;8.890;2022-09-06T00:26:22;98848.19;;;20.60;75.55
49949;BME280;35840;45.982;8.890;2022-09-06T00:28:49;98851.91;;;20.68;74.63
49949;BME280;35840;45.982;8.890;2022-09-06T00:31:21;98845.88;;;20.57;74.34
49949;BME280;35840;45.982;8.890;2022-09-06T00:33:49;98837.44;;;20.63;75.71
49949;BME280;35840;45.982;8.890;2022-09-06T00:36:18;98844.47;;;20.63;75.17
49949;BME280;35840;45.982;8.890;2022-09-06T00:38:45;98846.53;;;20.59;74.40
49949;BME280;35840;45.982;8.890;2022-09-06T00:41:14;98841.91;;;20.53;75.02
49949;BME280;35840;45.982;8.890;2022-09-06T00:43:42;98848.78;;;20.54;75.19
49949;BME280;35840;45.982;8.890;2022-09-06T00:46:13;98846.69;;;20.58;75.00
49949;BME280;35840;45.982;8.890;2022-09-06T00:48:42;98856.69;;;20.62;75.44
49949;BME280;35840;45.982;8.890;2022-09-06T00:51:13;98856.16;;;20.69;75.33
49949;BME280;35840;45.982;8.890;2022-09-06T00:53:42;98857.38;;;20.64;75.55
49949;BME280;35840;45.982;8.890;2022-09-06T00:56:11;98852.97;;;20.65;75.68
49949;BME280;35840;45.982;8.890;2022-09-06T00:58:38;98854.63;;;20.66;75.60
49949;BME280;35840;45.982;8.890;2022-09-06T01:01:05;98859.59;;;20.69;75.96
49949;BME280;35840;45.982;8.890;2022-09-06T01:03:34;98855.06;;;20.71;75.39
49949;BME280;35840;45.982;8.890;2022-09-06T01:12:18;98869.03;;;20.80;76.33
49949;BME280;35840;45.982;8.890;2022-09-06T01:28:45;98850.03;;;20.78;76.52
49949;BME280;35840;45.982;8.890;2022-09-06T01:39:26;98849.91;;;20.79;76.08
49949;BME280;35840;45.982;8.890;2022-09-06T01:41:57;98848.41;;;20.77;76.13
49949;BME280;35840;45.982;8.890;2022-09-06T01:44:25;98858.78;;;20.59;76.79
49949;BME280;35840;45.982;8.890;2022-09-06T01:47:19;98858.94;;;20.57;77.35
49949;BME280;35840;45.982;8.890;2022-09-06T01:53:10;98849.19;;;20.50;78.13
49949;BME280;35840;45.982;8.890;2022-09-06T01:56:12;98838.75;;;20.50;78.12
49949;BME280;35840;45.982;8.890;2022-09-06T01:58:54;98836.28;;;20.48;77.87
49949;BME280;35840;45.982;8.890;2022-09-06T02:01:36;98839.97;;;20.18;78.02
49949;BME280;35840;45.982;8.890;2022-09-06T02:04:19;98850.47;;;19.98;79.80
49949;BME280;35840;45.982;8.890;2022-09-06T02:06:53;98844.81;;;20.03;79.77
49949;BME280;35840;45.982;8.890;2022-09-06T02:09:24;98842.88;;;20.15;79.29
49949;BME280;35840;45.982;8.890;2022-09-06T02:11:56;98845.56;;;20.23;79.13
49949;BME280;35840;45.982;8.890;2022-09-06T02:14:30;98852.97;;;20.37;78.72
49949;BME280;35840;45.982;8.890;2022-09-06T02:17:01;98855.28;;;20.40;79.04
49949;BME280;35840;45.982;8.890;2022-09-06T02:19:45;98855.00;;;20.43;78.35
49949;BME280;35840;45.982;8.890;2022-09-06T02:22:16;98854.84;;;20.45;78.52
49949;BME280;35840;45.982;8.890;2022-09-06T02:24:46;98849.19;;;20.50;78.41
49949;BME280;35840;45.982;8.890;2022-09-06T02:27:16;98845.31;;;20.54;77.31
49949;BME280;35840;45.982;8.890;2022-09-06T02:29:43;98842.72;;;20.54;77.74
49949;BME280;35840;45.982;8.890;2022-09-06T02:32:24;98844.66;;;20.52;77.52
49949;BME280;35840;45.982;8.890;2022-09-06T02:34:54;98847.78;;;20.55;77.56
49949;BME280;35840;45.982;8.890;2022-09-06T02:37:24;98844.50;;;20.53;78.07
49949;BME280;35840;45.982;8.890;2022-09-06T02:39:55;98854.81;;;20.55;77.06
49949;BME280;35840;45.982;8.890;2022-09-06T02:42:24;98852.09;;;20.46;77.40
49949;BME280;35840;45.982;8.890;2022-09-06T02:44:53;98839.91;;;20.37;78.01
49949;BME280;35840;45.982;8.890;2022-09-06T02:47:20;98844.72;;;20.32;77.74
49949;BME280;35840;45.982;8.890;2022-09-06T02:49:47;98844.59;;;20.34;78.31
49949;BME280;35840;45.982;8.890;2022-09-06T02:52:14;98829.63;;;20.36;78.06
49949;BME280;35840;45.982;8.890;2022-09-06T02:54:41;98830.56;;;20.35;78.43
49949;BME280;35840;45.982;8.890;2022-09-06T02:57:08;98829.47;;;20.37;78.37
49949;BME280;35840;45.982;8.890;2022-09-06T02:59:36;98832.50;;;20.33;78.51
49949;BME280;35840;45.982;8.890;2022-09-06T03:02:03;98830.03;;;20.31;78.67
49949;BME280;35840;45.982;8.890;2022-09-06T03:04:30;98822.34;;;20.29;78.27
49949;BME280;35840;45.982;8.890;2022-09-06T03:06:58;98820.13;;;20.35;78.77
49949;BME280;35840;45.982;8.890;2022-09-06T03:09:25;98821.78;;;20.36;78.39
49949;BME280;35840;45.982;8.890;2022-09-06T03:11:52;98824.50;;;20.34;78.48
49949;BME280;35840;45.982;8.890;2022-09-06T03:14:19;98821.91;;;20.34;78.23
49949;BME280;35840;45.982;8.890;2022-09-06T03:16:46;98824.50;;;20.34;78.15
49949;BME280;35840;45.982;8.890;2022-09-06T03:19:16;98807.22;;;20.33;77.95
49949;BME280;35840;45.982;8.890;2022-09-06T03:21:45;98812.63;;;20.22;78.14
49949;BME280;35840;45.982;8.890;2022-09-06T03:24:12;98810.19;;;20.10;78.85
49949;BME280;35840;45.982;8.890;2022-09-06T03:26:40;98808.06;;;19.86;79.18
49949;BME280;35840;45.982;8.890;2022-09-06T03:29:08;98813.81;;;19.90;79.63
49949;BME280;35840;45.982;8.890;2022-09-06T03:31:35;98809.13;;;19.93;79.47
49949;BME280;35840;45.982;8.890;2022-09-06T03:34:07;98814.91;;;19.77;79.90
49949;BME280;35840;45.982;8.890;2022-09-06T03:36:36;98807.94;;;19.49;80.81
49949;BME280;35840;45.982;8.890;2022-09-06T03:39:06;98813.44;;;19.55;80.67
49949;BME280;35840;45.982;8.890;2022-09-06T03:41:33;98812.06;;;19.61;80.55
49949;BME280;35840;45.982;8.890;2022-09-06T03:44:01;98820.97;;;19.68;80.70
49949;BME280;35840;45.982;8.890;2022-09-06T03:46:28;98813.13;;;19.78;80.34
49949;BME280;35840;45.982;8.890;2022-09-06T03:48:58;98814.78;;;19.69;80.15
49949;BME280;35840;45.982;8.890;2022-09-06T03:51:25;98820.41;;;19.74;79.63
49949;BME280;35840;45.982;8.890;2022-09-06T03:53:52;98823.28;;;19.71;79.53
49949;BME280;35840;45.982;8.890;2022-09-06T03:56:19;98821.53;;;19.42;80.05
49949;BME280;35840;45.982;8.890;2022-09-06T03:58:46;98820.72;;;19.32;80.95
49949;BME280;35840;45.982;8.890;2022-09-06T04:01:15;98816.31;;;19.23;81.27
49949;BME280;35840;45.982;8.890;2022-09-06T04:03:42;98823.72;;;19.18;81.31
49949;BME280;35840;45.982;8.890;2022-09-06T04:06:09;98816.44;;;19.02;81.90
49949;BME280;35840;45.982;8.890;2022-09-06T04:08:39;98822.63;;;19.10;81.38
49949;BME280;35840;45.982;8.890;2022-09-06T04:11:08;98821.94;;;18.99;81.75
49949;BME280;35840;45.982;8.890;2022-09-06T04:13:35;98824.44;;;19.20;81.30
49949;BME280;35840;45.982;8.890;2022-09-06T04:16:03;98821.97;;;19.28;81.24
49949;BME280;35840;45.982;8.890;2022-09-06T04:18:31;98819.75;;;19.33;81.02
49949;BME280;35840;45.982;8.890;2022-09-06T04:20:58;98820.03;;;19.30;80.92
49949;BME280;35840;45.982;8.890;2022-09-06T04:23:26;98822.34;;;19.33;81.08
49949;BME280;35840;45.982;8.890;2022-09-06T04:25:55;98822.78;;;19.38;81.00
49949;BME280;35840;45.982;8.890;2022-09-06T04:28:26;98807.28;;;19.47;79.87
49949;BME280;35840;45.982;8.890;2022-09-06T04:31:03;98812.06;;;19.51;79.70
49949;BME280;35840;45.982;8.890;2022-09-06T04:33:33;98803.44;;;19.51;79.57
49949;BME280;35840;45.982;8.890;2022-09-06T04:36:04;98814.94;;;19.58;79.36
49949;BME280;35840;45.982;8.890;2022-09-06T04:38:37;98813.97;;;19.59;79.66
49949;BME280;35840;45.982;8.890;2022-09-06T04:41:05;98815.47;;;19.52;79.01
49949;BME280;35840;45.982;8.890;2022-09-06T04:43:32;98819.06;;;19.51;79.55
49949;BME280;35840;45.982;8.890;2022-09-06T04:46:22;98818.66;;;19.46;79.95
49949;BME280;35840;45.982;8.890;2022-09-06T04:48:52;98827.03;;;19.49;80.02
49949;BME280;35840;45.982;8.890;2022-09-06T04:51:20;98830.19;;;19.53;79.77
49949;BME280;35840;45.982;8.890;2022-09-06T04:53:50;98819.31;;;19.48;79.75
49949;BME280;35840;45.982;8.890;2022-09-06T04:56:21;98818.09;;;19.52;79.59
49949;BME280;35840;45.982;8.890;2022-09-06T04:58:49;98825.09;;;19.61;79.51
49949;BME280;35840;45.982;8.890;2022-09-06T05:01:19;98828.81;;;19.58;79.19
49949;BME280;35840;45.982;8.890;2022-09-06T05:03:46;98840.88;;;19.59;79.09
49949;BME280;35840;45.982;8.890;2022-09-06T05:06:22;98837.19;;;19.62;78.87
49949;BME280;35840;45.982;8.890;2022-09-06T05:08:50;98841.16;;;19.66;78.66
49949;BME280;35840;45.982;8.890;2022-09-06T05:11:17;98846.38;;;19.66;78.79
49949;BME280;35840;45.982;8.890;2022-09-06T05:13:45;98840.19;;;19.67;78.62
49949;BME280;35840;45.982;8.890;2022-09-06T05:16:13;98850.91;;;19.64;78.68
49949;BME280;35840;45.982;8.890;2022-09-06T05:18:43;98850.91;;;19.64;78.71
49949;BME280;35840;45.982;8.890;2022-09-06T05:21:10;98851.03;;;19.63;78.94
49949;BME280;35840;45.982;8.890;2022-09-06T05:23:37;98850.38;;;19.60;79.36
49949;BME280;35840;45.982;8.890;2022-09-06T05:26:07;98850.09;;;19.64;79.12
49949;BME280;35840;45.982;8.890;2022-09-06T05:28:34;98851.19;;;19.61;78.69
49949;BME280;35840;45.982;8.890;2022-09-06T05:31:10;98849.38;;;19.61;78.48
49949;BME280;35840;45.982;8.890;2022-09-06T05:33:39;98847.75;;;19.60;78.95
49949;BME280;35840;45.982;8.890;2022-09-06T05:36:07;98851.59;;;19.66;79.07
49949;BME280;35840;45.982;8.890;2022-09-06T05:38:35;98856.53;;;19.59;78.89
49949;BME280;35840;45.982;8.890;2022-09-06T05:41:08;98850.47;;;19.59;79.44
49949;BME280;35840;45.982;8.890;2022-09-06T05:43:35;98855.97;;;19.56;79.31
49949;BME280;35840;45.982;8.890;2022-09-06T05:46:02;98843.50;;;19.40;79.99
49949;BME280;35840;45.982;8.890;2022-09-06T05:48:37;98847.06;;;19.49;79.64
49949;BME280;35840;45.982;8.890;2022-09-06T05:51:12;98848.16;;;19.56;79.58
49949;BME280;35840;45.982;8.890;2022-09-06T05:53:42;98851.84;;;19.63;79.62
49949;BME280;35840;45.982;8.890;2022-09-06T05:56:12;98857.78;;;19.65;80.09
49949;BME280;35840;45.982;8.890;2022-09-06T05:58:42;98859.81;;;19.61;79.09
49949;BME280;35840;45.982;8.890;2022-09-06T06:03:55;98860.75;;;19.70;79.41
49949;BME280;35840;45.982;8.890;2022-09-06T06:06:31;98862.84;;;19.76;79.96
49949;BME280;35840;45.982;8.890;2022-09-06T06:09:00;98862.00;;;19.76;80.24
49949;BME280;35840;45.982;8.890;2022-09-06T06:11:30;98858.56;;;19.75;79.81
49949;BME280;35840;45.982;8.890;2022-09-06T06:14:10;98860.66;;;19.82;80.10
49949;BME280;35840;45.982;8.890;2022-09-06T06:16:37;98859.00;;;19.90;80.31
49949;BME280;35840;45.982;8.890;2022-09-06T06:19:06;98852.41;;;19.96;80.12
49949;BME280;35840;45.982;8.890;2022-09-06T06:21:34;98862.94;;;20.04;80.16
49949;BME280;35840;45.982;8.890;2022-09-06T06:24:09;98847.03;;;19.98;79.45
49949;BME280;35840;45.982;8.890;2022-09-06T06:26:40;98863.09;;;20.03;79.62
49949;BME280;35840;45.982;8.890;2022-09-06T06:29:09;98864.59;;;20.05;79.64
49949;BME280;35840;45.982;8.890;2022-09-06T06:31:37;98861.69;;;20.08;80.12
49949;BME280;35840;45.982;8.890;2022-09-06T06:34:07;98865.38;;;20.16;81.59
49949;BME280;35840;45.982;8.890;2022-09-06T06:36:36;98858.25;;;20.18;81.23
49949;BME280;35840;45.982;8.890;2022-09-06T06:39:05;98862.53;;;20.19;81.34
49949;BME280;35840;45.982;8.890;2022-09-06T06:41:37;98860.88;;;20.18;81.56
49949;BME280;35840;45.982;8.890;2022-09-06T06:44:25;98862.09;;;20.23;81.42
49949;BME280;35840;45.982;8.890;2022-09-06T06:46:55;98858.91;;;20.20;81.05
49949;BME280;35840;45.982;8.890;2022-09-06T06:49:25;98864.97;;;20.20;81.07
49949;BME280;35840;45.982;8.890;2022-09-06T06:51:58;98863.84;;;20.23;80.78
49949;BME280;35840;45.982;8.890;2022-09-06T06:54:28;98856.88;;;20.23;80.92
49949;BME280;35840;45.982;8.890;2022-09-06T06:56:58;98859.06;;;20.18;81.44
49949;BME280;35840;45.982;8.890;2022-09-06T06:59:24;98859.31;;;20.25;80.92
49949;BME280;35840;45.982;8.890;2022-09-06T07:01:55;98865.06;;;20.28;80.99
49949;BME280;35840;45.982;8.890;2022-09-06T07:04:26;98856.75;;;20.05;81.78
49949;BME280;35840;45.982;8.890;2022-09-06T07:06:55;98858.25;;;20.18;81.37
49949;BME280;35840;45.982;8.890;2022-09-06T07:09:43;98860.00;;;20.27;81.32
49949;BME280;35840;45.982;8.890;2022-09-06T07:12:32;98867.94;;;20.35;81.06
49949;BME280;35840;45.982;8.890;2022-09-06T07:15:02;98857.22;;;20.38;80.74
49949;BME280;35840;45.982;8.890;2022-09-06T07:17:30;98859.41;;;20.43;79.71
49949;BME280;35840;45.982;8.890;2022-09-06T07:20:04;98849.63;;;20.45;80.46
49949;BME280;35840;45.982;8.890;2022-09-06T07:22:40;98850.19;;;20.49;80.45
49949;BME280;35840;45.982;8.890;2022-09-06T07:25:09;98846.72;;;20.48;79.84
49949;BME280;35840;45.982;8.890;2022-09-06T07:27:44;98844.66;;;20.52;79.59
49949;BME280;35840;45.982;8.890;2022-09-06T07:30:35;98847.94;;;20.54;79.52
49949;BME280;35840;45.982;8.890;2022-09-06T07:33:13;98852.59;;;20.60;79.43
49949;BME280;35840;45.982;8.890;2022-09-06T07:35:40;98849.16;;;20.59;79.66
49949;BME280;35840;45.982;8.890;2022-09-06T07:38:10;98841.84;;;20.63;80.30
49949;BME280;35840;45.982;8.890;2022-09-06T07:40:55;98848.03;;;20.62;79.53
49949;BME280;35840;45.982;8.890;2022-09-06T07:43:27;98846.25;;;20.62;78.95
49949;BME280;35840;45.982;8.890;2022-09-06T07:46:08;98840.06;;;20.63;78.54
49949;BME280;35840;45.982;8.890;2022-09-06T07:48:37;98835.41;;;20.67;79.38
49949;BME280;35840;45.982;8.890;2022-09-06T07:51:17;98835.78;;;20.72;79.10
49949;BME280;35840;45.982;8.890;2022-09-06T07:53:50;98841.53;;;20.76;79.14
49949;BME280;35840;45.982;8.890;2022-09-06T07:56:36;98840.59;;;20.77;78.80
49949;BME280;35840;45.982;8.890;2022-09-06T07:59:06;98842.06;;;20.79;78.64
49949;BME280;35840;45.982;8.890;2022-09-06T08:01:38;98836.13;;;20.87;77.76
49949;BME280;35840;45.982;8.890;2022-09-06T08:04:11;98839.13;;;20.92;77.72
49949;BME280;35840;45.982;8.890;2022-09-06T08:06:42;98833.28;;;20.98;76.44
49949;BME280;35840;45.982;8.890;2022-09-06T08:09:35;98844.25;;;21.02;75.82
49949;BME280;35840;45.982;8.890;2022-09-06T08:12:04;98835.59;;;21.02;74.03
49949;BME280;35840;45.982;8.890;2022-09-06T08:14:35;98832.53;;;21.06;71.91
49949;BME280;35840;45.982;8.890;2022-09-06T08:17:06;98839.50;;;21.15;73.09
49949;BME280;35840;45.982;8.890;2022-09-06T08:19:35;98839.19;;;21.19;72.53
49949;BME280;35840;45.982;8.890;2022-09-06T08:22:03;98836.97;;;21.24;71.60
49949;BME280;35840;45.982;8.890;2022-09-06T08:24:32;98837.16;;;21.30;71.55
49949;BME280;35840;45.982;8.890;2022-09-06T08:27:02;98833.13;;;21.36;71.12
49949;BME280;35840;45.982;8.890;2022-09-06T08:29:29;98831.56;;;21.43;69.08
49949;BME280;35840;45.982;8.890;2022-09-06T08:31:57;98838.13;;;21.47;69.38
49949;BME280;35840;45.982;8.890;2022-09-06T08:34:26;98831.94;;;21.48;68.47
49949;BME280;35840;45.982;8.890;2022-09-06T08:36:55;98831.34;;;21.55;68.24
49949;BME280;35840;45.982;8.890;2022-09-06T08:39:24;98826.50;;;21.60;68.61
49949;BME280;35840;45.982;8.890;2022-09-06T08:42:04;98827.22;;;21.70;71.79
49949;BME280;35840;45.982;8.890;2022-09-06T08:47:24;98828.25;;;21.77;70.15
49949;BME280;35840;45.982;8.890;2022-09-06T08:50:01;98835.81;;;21.80;69.43
49949;BME280;35840;45.982;8.890;2022-09-06T08:53:10;98832.88;;;21.83;69.05
49949;BME280;35840;45.982;8.890;2022-09-06T08:58:27;98831.31;;;21.91;68.52
49949;BME280;35840;45.982;8.890;2022-09-06T09:01:03;98842.47;;;22.01;71.78
49949;BME280;35840;45.982;8.890;2022-09-06T09:03:37;98842.47;;;22.01;69.54
49949;BME280;35840;45.982;8.890;2022-09-06T09:06:07;98839.53;;;21.96;67.63
49949;BME280;35840;45.982;8.890;2022-09-06T09:11:24;98833.03;;;22.08;67.90
49949;BME280;35840;45.982;8.890;2022-09-06T09:16:22;98832.56;;;22.39;68.51
49949;BME280;35840;45.982;8.890;2022-09-06T09:19:09;98823.38;;;22.35;68.52
49949;BME280;35840;45.982;8.890;2022-09-06T09:21:38;98811.94;;;22.36;68.58
49949;BME280;35840;45.982;8.890;2022-09-06T09:24:09;98811.81;;;22.46;67.94
49949;BME280;35840;45.982;8.890;2022-09-06T09:26:58;98810.53;;;22.58;69.78
49949;BME280;35840;45.982;8.890;2022-09-06T09:29:30;98809.06;;;22.64;69.44
49949;BME280;35840;45.982;8.890;2022-09-06T09:32:04;98812.56;;;22.73;70.53
49949;BME280;35840;45.982;8.890;2022-09-06T09:34:35;98813.38;;;22.81;66.34
49949;BME280;35840;45.982;8.890;2022-09-06T09:37:23;98805.84;;;22.78;66.02
49949;BME280;35840;45.982;8.890;2022-09-06T09:40:16;98794.56;;;22.94;71.11
49949;BME280;35840;45.982;8.890;2022-09-06T09:43:07;98795.22;;;22.96;67.85
49949;BME280;35840;45.982;8.890;2022-09-06T09:45:36;98793.44;;;22.97;69.71
49949;BME280;35840;45.982;8.890;2022-09-06T09:48:18;98787.69;;;23.01;67.98
49949;BME280;35840;45.982;8.890;2022-09-06T09:50:46;98786.25;;;23.15;68.44
49949;BME280;35840;45.982;8.890;2022-09-06T09:53:18;98783.50;;;23.25;67.43
49949;BME280;35840;45.982;8.890;2022-09-06T09:55:57;98784.63;;;23.31;64.87
49949;BME280;35840;45.982;8.890;2022-09-06T09:58:34;98787.91;;;23.25;62.96
49949;BME280;35840;45.982;8.890;2022-09-06T10:01:24;98787.91;;;23.16;62.37
49949;BME280;35840;45.982;8.890;2022-09-06T10:04:00;98774.94;;;23.07;64.11
49949;BME280;35840;45.982;8.890;2022-09-06T10:06:48;98777.09;;;23.19;67.11
49949;BME280;35840;45.982;8.890;2022-09-06T10:09:41;98768.22;;;23.20;65.96
49949;BME280;35840;45.982;8.890;2022-09-06T10:12:15;98769.69;;;23.31;65.87
49949;BME280;35840;45.982;8.890;2022-09-06T10:14:48;98769.88;;;23.38;65.70
49949;BME280;35840;45.982;8.890;2022-09-06T10:17:32;98766.56;;;23.52;64.80
49949;BME280;35840;45.982;8.890;2022-09-06T10:20:09;98760.19;;;23.55;66.35
49949;BME280;35840;45.982;8.890;2022-09-06T10:28:37;98752.09;;;23.73;64.08
49949;BME280;35840;45.982;8.890;2022-09-06T10:31:23;98740.94;;;23.71;63.65
49949;BME280;35840;45.982;8.890;2022-09-06T10:39:37;98727.47;;;23.91;65.58
49949;BME280;35840;45.982;8.890;2022-09-06T10:42:42;98729.38;;;24.05;64.39
49949;BME280;35840;45.982;8.890;2022-09-06T10:50:56;98716.41;;;24.03;61.77
49949;BME280;35840;45.982;8.890;2022-09-06T10:54:16;98714.63;;;23.96;61.57
49949;BME280;35840;45.982;8.890;2022-09-06T10:59:10;98703.84;;;23.91;61.44
49949;BME280;35840;45.982;8.890;2022-09-06T11:05:06;98697.47;;;24.16;60.52
49949;BME280;35840;45.982;8.890;2022-09-06T11:08:07;98684.97;;;24.18;60.55
49949;BME280;35840;45.982;8.890;2022-09-06T11:10:56;98679.09;;;24.16;60.65
49949;BME280;35840;45.982;8.890;2022-09-06T11:13:27;98669.53;;;24.23;61.80
49949;BME280;35840;45.982;8.890;2022-09-06T11:16:25;98671.63;;;24.28;61.21
49949;BME280;35840;45.982;8.890;2022-09-06T11:19:01;98665.41;;;24.21;60.68
49949;BME280;35840;45.982;8.890;2022-09-06T11:27:37;98660.72;;;24.39;60.70
49949;BME280;35840;45.982;8.890;2022-09-06T11:30:16;98659.56;;;24.42;60.00
49949;BME280;35840;45.982;8.890;2022-09-06T11:32:51;98653.53;;;24.56;58.83
49949;BME280;35840;45.982;8.890;2022-09-06T11:35:29;98656.66;;;24.60;58.14
49949;BME280;35840;45.982;8.890;2022-09-06T11:38:06;98648.78;;;24.60;57.36
49949;BME280;35840;45.982;8.890;2022-09-06T11:41:00;98640.78;;;24.77;55.69
49949;BME280;35840;45.982;8.890;2022-09-06T11:43:48;98643.38;;;25.15;57.22
49949;BME280;35840;45.982;8.890;2022-09-06T11:49:07;98633.59;;;25.23;56.84
49949;BME280;35840;45.982;8.890;2022-09-06T11:51:44;98627.06;;;25.19;56.35
49949;BME280;35840;45.982;8.890;2022-09-06T11:56:56;98617.03;;;25.15;55.73
49949;BME280;35840;45.982;8.890;2022-09-06T11:59:48;98617.69;;;25.17;55.67
49949;BME280;35840;45.982;8.890;2022-09-06T12:02:41;98607.06;;;25.10;55.54
49949;BME280;35840;45.982;8.890;2022-09-06T12:05:14;98607.34;;;25.15;55.80
49949;BME280;35840;45.982;8.890;2022-09-06T12:16:15;98589.63;;;25.84;55.29
49949;BME280;35840;45.982;8.890;2022-09-06T12:24:02;98578.28;;;25.83;52.93
49949;BME280;35840;45.982;8.890;2022-09-06T12:26:45;98576.19;;;25.78;53.21
49949;BME280;35840;45.982;8.890;2022-09-06T12:29:25;98572.16;;;25.83;56.19
49949;BME280;35840;45.982;8.890;2022-09-06T12:31:54;98571.94;;;25.99;54.84
49949;BME280;35840;45.982;8.890;2022-09-06T12:34:28;98563.84;;;26.16;57.90
49949;BME280;35840;45.982;8.890;2022-09-06T12:37:03;98569.53;;;26.19;53.46
49949;BME280;35840;45.982;8.890;2022-09-06T12:39:34;98573.75;;;26.14;53.93
49949;BME280;35840;45.982;8.890;2022-09-06T12:42:11;98561.88;;;26.24;56.35
49949;BME280;35840;45.982;8.890;2022-09-06T12:44:48;98559.94;;;26.33;56.72
49949;BME280;35840;45.982;8.890;2022-09-06T12:47:30;98561.75;;;26.33;53.01
49949;BME280;35840;45.982;8.890;2022-09-06T12:50:21;98552.75;;;26.49;50.18
49949;BME280;35840;45.982;8.890;2022-09-06T12:52:56;98554.75;;;26.46;53.91
49949;BME280;35840;45.982;8.890;2022-09-06T12:55:30;98548.94;;;26.51;50.16
49949;BME280;35840;45.982;8.890;2022-09-06T12:58:03;98548.97;;;26.58;53.29
49949;BME280;35840;45.982;8.890;2022-09-06T13:00:47;98535.97;;;26.56;48.46
49949;BME280;35840;45.982;8.890;2022-09-06T13:03:44;98542.34;;;26.40;51.18
49949;BME280;35840;45.982;8.890;2022-09-06T13:06:20;98541.88;;;26.30;51.53
49949;BME280;35840;45.982;8.890;2022-09-06T13:08:55;98535.41;;;26.11;51.68
49949;BME280;35840;45.982;8.890;2022-09-06T13:11:29;98540.97;;;26.01;54.04
49949;BME280;35840;45.982;8.890;2022-09-06T13:14:09;98536.75;;;25.85;54.41
49949;BME280;35840;45.982;8.890;2022-09-06T13:16:43;98534.03;;;25.78;56.03
49949;BME280;35840;45.982;8.890;2022-09-06T13:19:17;98536.00;;;25.91;55.33
49949;BME280;35840;45.982;8.890;2022-09-06T13:21:46;98520.22;;;25.91;57.37
49949;BME280;35840;45.982;8.890;2022-09-06T13:24:43;98510.78;;;25.82;56.92
49949;BME280;35840;45.982;8.890;2022-09-06T13:27:24;98511.72;;;25.96;58.86
49949;BME280;35840;45.982;8.890;2022-09-06T13:30:00;98510.94;;;26.17;58.08
49949;BME280;35840;45.982;8.890;2022-09-06T13:32:30;98503.97;;;26.31;56.52
49949;BME280;35840;45.982;8.890;2022-09-06T13:35:02;98503.19;;;26.37;55.46
49949;BME280;35840;45.982;8.890;2022-09-06T13:37:33;98509.75;;;26.48;55.32
49949;BME280;35840;45.982;8.890;2022-09-06T13:43:38;98494.16;;;26.82;53.77
49949;BME280;35840;45.982;8.890;2022-09-06T13:46:12;98490.53;;;26.83;51.11
49949;BME280;35840;45.982;8.890;2022-09-06T13:48:40;98488.09;;;26.81;52.71
49949;BME280;35840;45.982;8.890;2022-09-06T13:51:12;98487.75;;;26.91;50.64
49949;BME280;35840;45.982;8.890;2022-09-06T13:53:42;98488.38;;;27.00;49.95
49949;BME280;35840;45.982;8.890;2022-09-06T13:56:12;98482.47;;;26.97;51.39
49949;BME280;35840;45.982;8.890;2022-09-06T13:58:40;98478.19;;;26.90;50.72
49949;BME280;35840;45.982;8.890;2022-09-06T14:01:10;98467.63;;;26.90;53.00
49949;BME280;35840;45.982;8.890;2022-09-06T14:03:39;98456.72;;;27.00;53.44
49949;BME280;35840;45.982;8.890;2022-09-06T14:06:08;98457.97;;;27.04;51.69
49949;BME280;35840;45.982;8.890;2022-09-06T14:08:38;98458.16;;;27.09;51.85
49949;BME280;35840;45.982;8.890;2022-09-06T14:11:28;98452.53;;;27.19;51.29
49949;BME280;35840;45.982;8.890;2022-09-06T14:13:56;98436.88;;;27.17;49.71
49949;BME280;35840;45.982;8.890;2022-09-06T14:16:27;98435.91;;;27.25;50.51
49949;BME280;35840;45.982;8.890;2022-09-06T14:18:54;98433.88;;;27.27;49.54
49949;BME280;35840;45.982;8.890;2022-09-06T14:21:22;98435.31;;;27.29;50.06
49949;BME280;35840;45.982;8.890;2022-09-06T14:23:52;98430.00;;;27.23;50.02
49949;BME280;35840;45.982;8.890;2022-09-06T14:26:26;98426.75;;;27.27;49.19
49949;BME280;35840;45.982;8.890;2022-09-06T14:28:54;98418.84;;;27.34;50.36
49949;BME280;35840;45.982;8.890;2022-09-06T14:31:24;98419.72;;;27.35;49.90
49949;BME280;35840;45.982;8.890;2022-09-06T14:33:55;98416.19;;;27.27;49.48
49949;BME280;35840;45.982;8.890;2022-09-06T14:36:28;98414.38;;;27.21;50.03
49949;BME280;35840;45.982;8.890;2022-09-06T14:39:05;98414.97;;;27.17;50.21
49949;BME280;35840;45.982;8.890;2022-09-06T14:41:36;98414.97;;;27.17;49.98
49949;BME280;35840;45.982;8.890;2022-09-06T14:44:03;98416.81;;;27.29;50.60
49949;BME280;35840;45.982;8.890;2022-09-06T14:46:32;98418.44;;;27.24;49.92
49949;BME280;35840;45.982;8.890;2022-09-06T14:49:02;98405.63;;;27.14;51.13
49949;BME280;35840;45.982;8.890;2022-09-06T14:51:35;98413.53;;;27.14;50.95
49949;BME280;35840;45.982;8.890;2022-09-06T14:54:08;98408.69;;;27.18;51.81
49949;BME280;35840;45.982;8.890;2022-09-06T14:56:38;98408.25;;;27.14;52.41
49949;BME280;35840;45.982;8.890;2022-09-06T14:59:08;98413.97;;;27.18;52.07
49949;BME280;35840;45.982;8.890;2022-09-06T15:01:51;98410.72;;;27.22;49.82
49949;BME280;35840;45.982;8.890;2022-09-06T15:04:27;98412.97;;;27.25;49.17
49949;BME280;35840;45.982;8.890;2022-09-06T15:06:55;98410.72;;;27.22;48.60
49949;BME280;35840;45.982;8.890;2022-09-06T15:09:23;98413.53;;;27.14;47.85